Meteo

Meteo


Dettagli e Storico

Webcam

Webcam in aeroporto – Aggiornata ogni minuto

Osservatorio Meteorologico Cocomaro di Cona – Ferrara

NOAA IMAGE

NOAA

Powerd by MEEO S.r.l.

METAR

Aviation Digital Data Service (ADDS)

Output produced by METARs form (0913 UTC 22 November 2017)
found at http://www.aviationweather.gov/adds/metars/
 

METAR text: LIPF 220855Z 23001KT 3000 BR NSC 05/04 Q1021
Conditions at: LIPF
(FERRARA (AUT) , IT) observed 0855 UTC 22 November 2017
Temperature: 5.0°C (41°F)
Dewpoint: 4.0°C (39°F) [RH = 93%]
Pressure (altimeter): 30.15 inches Hg (1021.0 mb)
Winds: from the SW (230 degrees) at 1 MPH (1 knots; 0.5 m/s)
Visibility: 1.86 miles (2.99 km)
Ceiling: at least 12,000 feet AGL
Clouds: sky clear below 12,000 feet AGL
Weather: BR  (mist)

METAR text: LIPE 220850Z 27003KT 220V310 CAVOK 07/05 Q1021
Conditions at: LIPE
(BOLOGNA/BORGO (A, IT) observed 0850 UTC 22 November 2017
Temperature: 7.0°C (45°F)
Dewpoint: 5.0°C (41°F) [RH = 87%]
Pressure (altimeter): 30.15 inches Hg (1021.0 mb)
Winds: from the W (270 degrees) at 3 MPH (3 knots; 1.6 m/s)
Visibility: 6 or more miles (10+ km)
Ceiling: ceiling and visibility are OK
Clouds: unknown
Weather: no significant weather observed at this time

Forecast for: LIPE (BOLOGNA/BORGO (A, IT)
Text: TAF LIPE 220500Z 2206/2306 VRB05KT CAVOK
Forecast period: 0600 UTC 22 November 2017 to 0600 UTC 23 November 2017
Forecast type: FROM: standard forecast or significant change
Winds: variable direction winds at 6 MPH (5 knots; 2.6 m/s)
Visibility: 6 or more miles (10+ km)
Clouds: not forecast
Weather: NSW  (no significant weather)
Text: TEMPO 2222/2306 3000 BR
Forecast period: 2200 UTC 22 November 2017 to 0600 UTC 23 November 2017
Forecast type: TEMPORARY: The following changes expected for less than half the time period
Visibility: 1.86 miles (2.99 km)
Weather: BR  (mist)

METAR text: LIPX 220850Z VRB02KT 8000 BKN050 08/04 Q1021
Conditions at: LIPX
(VILLAFRANCA(CV/M, IT) observed 0850 UTC 22 November 2017
Temperature: 8.0°C (46°F)
Dewpoint: 4.0°C (39°F) [RH = 76%]
Pressure (altimeter): 30.15 inches Hg (1021.0 mb)
Winds: variable direction winds at 2 MPH (2 knots; 1.0 m/s)
Visibility: 5 miles (8 km)
Ceiling: 5000 feet AGL
Clouds: broken clouds at 5000 feet AGL
Weather: no significant weather observed at this time

Forecast for: LIPX (VILLAFRANCA(CV/M, IT)
Text: TAF LIPX 220800Z 2209/2218 VRB05KT 9999 SCT050
Forecast period: 0900 to 1800 UTC 22 November 2017
Forecast type: FROM: standard forecast or significant change
Winds: variable direction winds at 6 MPH (5 knots; 2.6 m/s)
Visibility: 6 or more miles (10+ km)
Clouds: scattered clouds at 5000 feet AGL
Weather: no significant weather forecast for this period

METAR text: LIPZ 220850Z 29004KT 260V340 7000 OVC036 07/03 Q1021 NOSIG
Conditions at: LIPZ
(VENEZIA/TESSERA , IT) observed 0850 UTC 22 November 2017
Temperature: 7.0°C (45°F)
Dewpoint: 3.0°C (37°F) [RH = 76%]
Pressure (altimeter): 30.15 inches Hg (1021.0 mb)
Winds: from the WNW (290 degrees) at 5 MPH (4 knots; 2.1 m/s)
Visibility: 4 miles (7 km)
Ceiling: 3600 feet AGL
Clouds: overcast cloud deck at 3600 feet AGL
Weather: no significant weather observed at this time

Forecast for: LIPZ (VENEZIA/TESSERA , IT)
Text: TAF LIPZ 220500Z 2206/2312 VRB05KT CAVOK
Forecast period: 0600 UTC 22 November 2017 to 1200 UTC 23 November 2017
Forecast type: FROM: standard forecast or significant change
Winds: variable direction winds at 6 MPH (5 knots; 2.6 m/s)
Visibility: 6 or more miles (10+ km)
Clouds: not forecast
Weather: NSW  (no significant weather)
Text: TEMPO 2222/2306 4000 BR
Forecast period: 2200 UTC 22 November 2017 to 0600 UTC 23 November 2017
Forecast type: TEMPORARY: The following changes expected for less than half the time period
Visibility: 2.49 miles (4.01 km)
Weather: BR  (mist)